createdAt,value
2018-10-18T00:00:20.221Z,98735.84
2018-10-18T00:02:48.016Z,98735.02
2018-10-18T00:05:15.906Z,98735.32
2018-10-18T00:07:43.754Z,98734.48
2018-10-18T00:11:35.201Z,98717.16
2018-10-18T00:14:03.086Z,98734.47
2018-10-18T00:16:31.221Z,98728.08
2018-10-18T00:18:59.218Z,98728.91
2018-10-18T00:21:26.873Z,98728.11
2018-10-18T00:23:55.209Z,98735.02
2018-10-18T00:26:23.001Z,98730.75
2018-10-18T00:28:50.861Z,98734.22
2018-10-18T00:31:18.953Z,98734.74
2018-10-18T00:33:46.997Z,98728.05
2018-10-18T00:36:14.971Z,98730.45
2018-10-18T00:38:42.670Z,98737.70
2018-10-18T00:41:09.869Z,98729.41
2018-10-18T00:43:37.845Z,98735.25
2018-10-18T00:46:05.862Z,98733.13
2018-10-18T00:48:33.746Z,98722.20
2018-10-18T00:51:01.627Z,98723.53
2018-10-18T00:53:29.524Z,98728.33
2018-10-18T00:55:57.324Z,98715.25
2018-10-18T00:58:25.038Z,98722.20
2018-10-18T01:00:53.077Z,98721.11
2018-10-18T01:03:20.788Z,98717.92
2018-10-18T01:05:48.614Z,98720.07
2018-10-18T01:08:16.563Z,98716.30
2018-10-18T01:10:43.661Z,98717.38
2018-10-18T01:13:11.308Z,98718.44
2018-10-18T01:15:39.017Z,98717.62
2018-10-18T01:18:07.145Z,98717.62
2018-10-18T01:20:41.313Z,98717.91
2018-10-18T01:23:09.386Z,98720.89
2018-10-18T01:25:37.553Z,98716.88
2018-10-18T01:28:05.455Z,98720.59
2018-10-18T01:30:33.307Z,98723.81
2018-10-18T01:33:01.034Z,98717.67
2018-10-18T01:35:29.006Z,98724.61
2018-10-18T01:37:57.211Z,98724.36
2018-10-18T01:40:25.046Z,98724.62
2018-10-18T01:42:52.305Z,98723.03
2018-10-18T01:45:20.419Z,98724.66
2018-10-18T01:47:48.393Z,98718.23
2018-10-18T01:50:16.272Z,98716.09
2018-10-18T01:52:44.153Z,98713.95
2018-10-18T01:55:11.485Z,98715.56
2018-10-18T01:57:39.195Z,98702.17
2018-10-18T02:00:07.997Z,98700.88
2018-10-18T02:02:35.662Z,98705.64
2018-10-18T02:05:03.491Z,98706.48
2018-10-18T02:07:31.310Z,98715.00
2018-10-18T02:09:59.030Z,98686.23
2018-10-18T02:12:26.841Z,98715.58
2018-10-18T02:14:54.636Z,98722.81
2018-10-18T02:17:22.659Z,98719.58
2018-10-18T02:19:50.590Z,98724.16
2018-10-18T02:22:18.526Z,98726.55
2018-10-18T02:24:46.582Z,98722.27
2018-10-18T02:27:14.532Z,98725.70
2018-10-18T02:29:42.185Z,98726.00
2018-10-18T02:32:09.790Z,98724.16
2018-10-18T02:34:37.638Z,98716.38
2018-10-18T02:37:05.449Z,98713.21
2018-10-18T02:39:33.394Z,98714.23
2018-10-18T02:42:01.371Z,98714.00
2018-10-18T02:44:29.222Z,98715.34
2018-10-18T02:46:56.949Z,98706.52
2018-10-18T02:49:25.401Z,98708.11
2018-10-18T02:51:53.191Z,98712.94
2018-10-18T02:54:21.117Z,98707.05
2018-10-18T02:56:48.806Z,98713.98
2018-10-18T02:59:16.763Z,98707.33
2018-10-18T03:01:44.631Z,98707.86
2018-10-18T03:04:12.551Z,98707.33
2018-10-18T03:06:40.322Z,98707.88
2018-10-18T03:09:09.566Z,98717.48
2018-10-18T03:11:37.422Z,98714.30
2018-10-18T03:14:04.618Z,98709.74
2018-10-18T03:16:32.559Z,98716.66
2018-10-18T03:19:00.478Z,98715.33
2018-10-18T03:21:27.674Z,98717.23
2018-10-18T03:23:55.476Z,98710.84
2018-10-18T03:26:23.382Z,98719.65
2018-10-18T03:28:51.185Z,98719.91
2018-10-18T03:31:18.903Z,98722.86
2018-10-18T03:33:46.761Z,98726.33
2018-10-18T03:36:15.052Z,98726.59
2018-10-18T03:38:42.953Z,98722.84
2018-10-18T03:41:10.802Z,98725.53
2018-10-18T03:43:38.670Z,98679.60
2018-10-18T03:46:06.566Z,98722.34
2018-10-18T03:48:34.598Z,98728.47
2018-10-18T03:51:02.307Z,98726.34
2018-10-18T03:54:26.035Z,98731.41
2018-10-18T03:58:06.986Z,98692.20
2018-10-18T04:00:34.753Z,98719.70
2018-10-18T04:04:27.189Z,98729.31
2018-10-18T04:06:55.172Z,98735.44
2018-10-18T04:09:23.197Z,98740.78
2018-10-18T04:11:50.872Z,98734.39
2018-10-18T04:14:18.698Z,98710.34
2018-10-18T04:16:46.755Z,98738.11
2018-10-18T04:19:14.612Z,98739.47
2018-10-18T04:21:42.377Z,98731.45
2018-10-18T04:24:09.880Z,98736.78
2018-10-18T04:26:37.653Z,98733.03
2018-10-18T04:29:05.465Z,98736.27
2018-10-18T04:31:33.193Z,98737.86
2018-10-18T04:34:00.810Z,98732.78
2018-10-18T04:36:28.678Z,98736.81
2018-10-18T04:38:56.582Z,98740.53
2018-10-18T04:41:24.497Z,98739.48
2018-10-18T04:43:52.409Z,98739.71
2018-10-18T04:46:20.303Z,98742.67
2018-10-18T04:48:48.022Z,98741.62
2018-10-18T04:51:15.858Z,98737.32
2018-10-18T04:53:43.730Z,98746.39
2018-10-18T04:56:11.583Z,98748.55
2018-10-18T04:58:39.486Z,98712.28
2018-10-18T05:01:07.624Z,98753.36
2018-10-18T05:03:35.313Z,98755.80
2018-10-18T05:06:04.423Z,98756.83
2018-10-18T05:08:32.349Z,98757.89
2018-10-18T05:11:00.199Z,98756.81
2018-10-18T05:13:28.052Z,98761.92
2018-10-18T05:15:55.910Z,98761.09
2018-10-18T05:18:23.910Z,98760.31
2018-10-18T05:20:51.820Z,98764.84
2018-10-18T05:23:19.659Z,98752.84
2018-10-18T05:25:48.306Z,98757.91
2018-10-18T05:28:16.036Z,98759.97
2018-10-18T05:30:43.984Z,98754.61
2018-10-18T05:33:11.306Z,98762.62
2018-10-18T05:35:39.105Z,98762.61
2018-10-18T05:38:06.987Z,98771.70
2018-10-18T05:40:34.444Z,98769.66
2018-10-18T05:43:02.339Z,98769.69
2018-10-18T05:45:30.193Z,98773.69
2018-10-18T05:47:58.406Z,98779.30
2018-10-18T05:50:26.272Z,98782.77
2018-10-18T05:52:54.039Z,98784.64
2018-10-18T05:55:21.754Z,98787.59
2018-10-18T05:57:49.613Z,98784.92
2018-10-18T06:00:18.099Z,98784.92
2018-10-18T06:02:45.617Z,98787.31
2018-10-18T06:05:14.797Z,98788.39
2018-10-18T06:07:43.396Z,98792.40
2018-10-18T06:11:55.222Z,98795.89
2018-10-18T06:14:22.966Z,98800.16
2018-10-18T06:16:50.677Z,98807.62
2018-10-18T06:22:41.082Z,98814.33
2018-10-18T06:25:09.415Z,98811.67
2018-10-18T06:27:37.317Z,98813.51
2018-10-18T06:30:07.205Z,98810.59
2018-10-18T06:32:35.005Z,98811.39
2018-10-18T06:35:03.051Z,98812.47
2018-10-18T06:37:30.535Z,98810.88
2018-10-18T06:39:58.334Z,98790.04
2018-10-18T06:42:26.051Z,98816.21
2018-10-18T06:44:54.594Z,98818.38
2018-10-18T06:47:22.452Z,98816.75
2018-10-18T06:49:50.212Z,98822.63
2018-10-18T06:52:18.101Z,98824.79
2018-10-18T06:54:45.993Z,98823.72
2018-10-18T06:57:13.826Z,98809.28
2018-10-18T06:59:41.649Z,98813.29
2018-10-18T07:02:09.314Z,98819.42
2018-10-18T07:04:37.079Z,98798.31
2018-10-18T07:07:04.990Z,98825.83
2018-10-18T07:09:32.966Z,98826.91
2018-10-18T07:12:00.817Z,98832.79
2018-10-18T07:14:28.622Z,98825.83
2018-10-18T07:16:56.506Z,98837.85
2018-10-18T07:19:24.023Z,98838.66
2018-10-18T07:21:51.934Z,98838.11
2018-10-18T07:24:20.597Z,98842.66
2018-10-18T07:26:48.502Z,98848.53
2018-10-18T07:29:16.486Z,98851.47
2018-10-18T07:31:44.346Z,98854.69
2018-10-18T07:34:12.054Z,98857.62
2018-10-18T07:36:39.366Z,98857.34
2018-10-18T07:39:11.370Z,98863.48
2018-10-18T07:41:39.061Z,98861.11
2018-10-18T07:44:06.791Z,98861.34
2018-10-18T07:46:35.840Z,98866.42
2018-10-18T07:49:04.530Z,98868.05
2018-10-18T07:51:32.397Z,98866.44
2018-10-18T07:54:00.458Z,98869.92
2018-10-18T07:56:27.773Z,98879.53
2018-10-18T07:58:55.690Z,98874.73
2018-10-18T08:01:23.449Z,98880.34
2018-10-18T08:03:51.400Z,98881.14
2018-10-18T08:06:19.224Z,98876.58
2018-10-18T08:08:46.997Z,98877.12
2018-10-18T08:11:14.812Z,98882.49
2018-10-18T08:13:42.775Z,98883.55
2018-10-18T08:16:10.610Z,98880.06
2018-10-18T08:18:38.468Z,98878.20
2018-10-18T08:21:06.465Z,98878.21
2018-10-18T08:23:34.216Z,98875.01
2018-10-18T08:26:01.996Z,98869.12
2018-10-18T08:28:29.898Z,98863.24
2018-10-18T08:30:58.644Z,98868.85
2018-10-18T08:33:26.482Z,98875.81
2018-10-18T08:35:53.967Z,98864.03
2018-10-18T08:38:22.475Z,98872.87
2018-10-18T08:40:50.518Z,98879.00
2018-10-18T08:43:19.063Z,98873.67
2018-10-18T08:45:46.975Z,98867.26
2018-10-18T08:48:14.885Z,98869.39
2018-10-18T08:50:42.700Z,98874.45
2018-10-18T08:53:10.603Z,98862.17
2018-10-18T08:55:38.543Z,98865.37
2018-10-18T08:58:05.944Z,98867.50
2018-10-18T09:00:33.687Z,98870.99
2018-10-18T09:03:01.554Z,98870.99
2018-10-18T09:05:29.289Z,98870.17
2018-10-18T09:07:57.005Z,98875.78
2018-10-18T09:10:25.687Z,98879.79
2018-10-18T09:12:53.601Z,98878.99
2018-10-18T09:15:21.598Z,98878.19
2018-10-18T09:17:49.486Z,98881.95
2018-10-18T09:20:16.890Z,98878.20
2018-10-18T09:22:44.694Z,98872.86
2018-10-18T09:25:12.724Z,98869.94
2018-10-18T09:27:41.004Z,98863.51
2018-10-18T09:30:11.049Z,98864.58
2018-10-18T09:32:38.466Z,98861.91
2018-10-18T09:35:06.460Z,98859.22
2018-10-18T09:37:34.591Z,98860.55
2018-10-18T09:40:02.408Z,98858.15
2018-10-18T09:42:30.607Z,98857.11
2018-10-18T09:44:58.642Z,98857.63
2018-10-18T09:47:26.711Z,98861.38
2018-10-18T09:49:54.756Z,98859.50
2018-10-18T09:52:22.604Z,98861.39
2018-10-18T09:54:50.513Z,98859.23
2018-10-18T09:57:17.738Z,98858.16
2018-10-18T09:59:45.591Z,98862.98
2018-10-18T10:02:19.629Z,98863.51
2018-10-18T10:04:47.569Z,98856.30
2018-10-18T10:07:14.827Z,98856.04
2018-10-18T10:09:42.606Z,98856.28
2018-10-18T10:12:10.597Z,98852.56
2018-10-18T10:14:37.950Z,98860.04
2018-10-18T10:17:06.860Z,98854.70
2018-10-18T10:19:34.673Z,98850.43
2018-10-18T10:22:02.601Z,98853.88
2018-10-18T10:24:30.565Z,98845.33
2018-10-18T10:26:57.777Z,98844.26
2018-10-18T10:29:25.610Z,98842.41
2018-10-18T10:31:53.612Z,98843.46
2018-10-18T10:34:21.485Z,98838.91
2018-10-18T10:36:49.318Z,98835.98
2018-10-18T10:39:17.164Z,98836.78
2018-10-18T10:41:45.227Z,98847.73
2018-10-18T10:44:13.085Z,98844.27
2018-10-18T10:46:41.018Z,98841.59
2018-10-18T10:49:09.062Z,98839.70
2018-10-18T10:51:37.061Z,98835.97
2018-10-18T10:54:06.719Z,98836.51
2018-10-18T10:56:34.470Z,98827.42
2018-10-18T10:59:18.865Z,98833.30
2018-10-18T11:01:46.951Z,98827.66
2018-10-18T11:04:14.907Z,98831.69
2018-10-18T11:06:42.773Z,98818.05
2018-10-18T11:09:11.236Z,98816.19
2018-10-18T11:11:39.062Z,98813.77
2018-10-18T11:14:06.938Z,98816.97
2018-10-18T11:16:35.073Z,98799.05
2018-10-18T11:19:03.467Z,98796.94
2018-10-18T11:21:34.137Z,98792.64
2018-10-18T11:24:02.011Z,98800.67
2018-10-18T11:26:29.827Z,98802.28
2018-10-18T11:28:57.951Z,98795.33
2018-10-18T11:31:25.754Z,98789.42
2018-10-18T11:33:53.026Z,98789.96
2018-10-18T11:36:20.421Z,98790.53
2018-10-18T11:38:48.423Z,98787.84
2018-10-18T11:41:16.503Z,98787.83
2018-10-18T11:43:44.234Z,98784.09
2018-10-18T11:46:12.049Z,98780.34
2018-10-18T11:48:39.897Z,98780.89
2018-10-18T11:51:07.726Z,98785.16
2018-10-18T11:53:35.561Z,98778.73
2018-10-18T11:56:03.242Z,98775.80
2018-10-18T11:58:30.590Z,98776.59
2018-10-18T12:00:58.521Z,98776.34
2018-10-18T12:03:26.329Z,98779.27
2018-10-18T12:05:54.075Z,98764.58
2018-10-18T12:08:21.916Z,98762.17
2018-10-18T12:10:49.742Z,98755.74
2018-10-18T12:13:17.609Z,98760.01
2018-10-18T12:15:45.445Z,98759.21
2018-10-18T12:18:13.204Z,98756.53
2018-10-18T12:20:41.201Z,98754.66
2018-10-18T12:23:09.061Z,98753.58
2018-10-18T12:25:36.785Z,98753.06
2018-10-18T12:28:04.606Z,98749.31
2018-10-18T12:30:32.434Z,98747.70
2018-10-18T12:33:00.229Z,98748.24
2018-10-18T12:35:28.335Z,98733.03
2018-10-18T12:37:56.086Z,98745.80
2018-10-18T12:40:23.869Z,98752.22
2018-10-18T12:42:52.042Z,98746.09
2018-10-18T12:45:19.819Z,98745.81
2018-10-18T12:47:47.726Z,98747.14
2018-10-18T12:50:15.640Z,98744.72
2018-10-18T12:52:43.843Z,98746.87
2018-10-18T12:55:11.678Z,98748.20
2018-10-18T12:57:39.570Z,98739.37
2018-10-18T13:00:08.990Z,98742.31
2018-10-18T13:02:36.990Z,98747.09
2018-10-18T13:05:06.798Z,98742.86
2018-10-18T13:07:34.642Z,98745.51
2018-10-18T13:10:02.639Z,98745.51
2018-10-18T13:12:30.652Z,98743.37
2018-10-18T13:14:58.501Z,98743.37
2018-10-18T13:17:26.355Z,98740.16
2018-10-18T13:19:54.219Z,98734.28
2018-10-18T13:22:22.043Z,98737.48
2018-10-18T13:24:49.974Z,98739.36
2018-10-18T13:27:17.491Z,98737.20
2018-10-18T13:29:45.206Z,98730.50
2018-10-18T13:32:13.226Z,98735.59
2018-10-18T13:34:41.058Z,98733.20
2018-10-18T13:37:08.873Z,98728.42
2018-10-18T13:39:36.695Z,98732.39
2018-10-18T13:42:04.653Z,98730.55
2018-10-18T13:44:32.419Z,98729.98
2018-10-18T13:47:00.199Z,98738.81
2018-10-18T13:49:27.874Z,98728.95
2018-10-18T13:51:55.754Z,98732.14
2018-10-18T13:54:23.600Z,98732.93
2018-10-18T13:56:51.309Z,98732.12
2018-10-18T13:59:37.020Z,98706.52
2018-10-18T14:02:05.308Z,98736.93
2018-10-18T14:04:33.219Z,98728.09
2018-10-18T14:07:00.534Z,98725.94
2018-10-18T14:09:28.285Z,98717.93
2018-10-18T14:11:56.023Z,98715.23
2018-10-18T14:14:23.949Z,98720.05
2018-10-18T14:16:51.926Z,98725.95
2018-10-18T14:19:19.951Z,98721.13
2018-10-18T14:21:47.946Z,98721.43
2018-10-18T14:24:15.398Z,98720.59
2018-10-18T14:28:06.624Z,98720.34
2018-10-18T14:30:33.820Z,98719.01
2018-10-18T14:33:01.703Z,98719.27
2018-10-18T14:35:29.541Z,98717.38
2018-10-18T14:37:57.334Z,98710.73
2018-10-18T14:40:25.020Z,98717.38
2018-10-18T14:42:53.690Z,98713.91
2018-10-18T14:45:21.514Z,98723.27
2018-10-18T14:47:49.571Z,98719.80
2018-10-18T14:50:23.681Z,98721.64
2018-10-18T14:52:51.486Z,98726.28
2018-10-18T14:55:19.570Z,98724.66
2018-10-18T14:57:47.558Z,98722.80
2018-10-18T15:00:15.486Z,98719.84
2018-10-18T15:02:43.216Z,98724.95
2018-10-18T15:05:11.951Z,98724.16
2018-10-18T15:07:40.381Z,98719.36
2018-10-18T15:10:10.866Z,98723.11
2018-10-18T15:12:38.820Z,98726.33
2018-10-18T15:15:08.233Z,98668.42
2018-10-18T15:17:35.943Z,98725.05
2018-10-18T15:20:05.113Z,98719.69
2018-10-18T15:22:33.034Z,98722.86
2018-10-18T15:25:01.273Z,98720.20
2018-10-18T15:27:29.110Z,98724.16
2018-10-18T15:29:58.853Z,98723.13
2018-10-18T15:32:30.452Z,98725.22
2018-10-18T15:34:59.216Z,98726.55
2018-10-18T15:37:28.778Z,98721.20
2018-10-18T15:39:58.662Z,98724.11
2018-10-18T15:42:27.885Z,98724.62
2018-10-18T15:44:57.767Z,98718.48
2018-10-18T15:47:27.945Z,98723.81
2018-10-18T15:49:57.902Z,98726.98
2018-10-18T15:52:27.607Z,98717.42
2018-10-18T15:54:56.834Z,98725.66
2018-10-18T15:59:58.540Z,98738.72
2018-10-18T16:02:26.202Z,98741.98
2018-10-18T16:04:53.824Z,98742.23
2018-10-18T16:07:21.621Z,98742.83
2018-10-18T16:09:49.617Z,98746.05
2018-10-18T16:12:18.219Z,98749.27
2018-10-18T16:14:46.066Z,98748.52
2018-10-18T16:17:14.573Z,98748.50
2018-10-18T16:19:42.302Z,98753.57
2018-10-18T16:22:10.026Z,98752.78
2018-10-18T16:24:37.888Z,98759.46
2018-10-18T16:27:05.642Z,98760.78
2018-10-18T16:29:33.301Z,98767.48
2018-10-18T16:32:01.044Z,98764.27
2018-10-18T16:34:29.222Z,98774.97
2018-10-18T16:36:56.954Z,98773.61
2018-10-18T16:39:24.776Z,98774.97
2018-10-18T16:41:52.114Z,98780.06
2018-10-18T16:44:19.762Z,98782.73
2018-10-18T16:47:25.209Z,98790.76
2018-10-18T16:49:53.416Z,98794.48
2018-10-18T16:52:21.608Z,98793.69
2018-10-18T16:54:50.013Z,98798.51
2018-10-18T16:57:17.926Z,98803.23
2018-10-18T16:59:45.664Z,98811.25
2018-10-18T17:02:13.738Z,98816.34
2018-10-18T17:04:41.590Z,98815.78
2018-10-18T17:07:09.258Z,98818.39
2018-10-18T17:09:36.962Z,98818.64
2018-10-18T17:12:04.894Z,98817.09
2018-10-18T17:14:32.783Z,98822.94
2018-10-18T17:17:00.611Z,98828.28
2018-10-18T17:19:28.546Z,98826.67
2018-10-18T17:21:56.213Z,98834.97
2018-10-18T17:24:23.856Z,98830.95
2018-10-18T17:26:51.786Z,98840.28
2018-10-18T17:29:19.015Z,98837.10
2018-10-18T17:31:46.786Z,98845.64
2018-10-18T17:34:14.635Z,98841.36
2018-10-18T17:36:42.538Z,98839.19
2018-10-18T17:39:10.821Z,98827.45
2018-10-18T17:41:38.586Z,98836.53
2018-10-18T17:44:07.065Z,98837.06
2018-10-18T17:46:34.171Z,98844.27
2018-10-18T17:49:01.821Z,98845.88
2018-10-18T17:51:29.613Z,98845.09
2018-10-18T17:53:57.498Z,98845.38
2018-10-18T17:56:24.729Z,98847.47
2018-10-18T17:58:52.810Z,98851.77
2018-10-18T18:01:20.666Z,98849.87
2018-10-18T18:03:48.302Z,98853.91
2018-10-18T18:06:16.099Z,98855.23
2018-10-18T18:08:44.046Z,98865.12
2018-10-18T18:11:11.302Z,98868.09
2018-10-18T18:13:38.992Z,98866.99
2018-10-18T18:16:06.764Z,98856.04
2018-10-18T18:18:34.497Z,98864.31
2018-10-18T18:21:02.207Z,98870.97
2018-10-18T18:23:53.017Z,98881.72
2018-10-18T18:26:20.721Z,98872.60
2018-10-18T18:28:48.767Z,98869.40
2018-10-18T18:31:16.579Z,98871.30
2018-10-18T18:33:44.193Z,98875.83
2018-10-18T18:36:12.040Z,98879.83
2018-10-18T18:38:39.749Z,98884.65
2018-10-18T18:41:07.573Z,98891.88
2018-10-18T18:43:35.197Z,98889.45
2018-10-18T18:46:02.537Z,98892.66
2018-10-18T18:48:30.216Z,98900.17
2018-10-18T18:50:57.993Z,98893.22
2018-10-18T18:53:25.726Z,98899.37
2018-10-18T18:55:53.014Z,98904.19
2018-10-18T18:58:20.918Z,98898.84
2018-10-18T19:00:48.698Z,98906.33
2018-10-18T19:03:16.531Z,98904.20
2018-10-18T19:05:44.775Z,98902.55
2018-10-18T19:08:13.522Z,98911.67
2018-10-18T19:10:41.200Z,98908.45
2018-10-18T19:13:08.963Z,98903.93
2018-10-18T19:15:36.870Z,98908.45
2018-10-18T19:18:04.992Z,98901.77
2018-10-18T19:20:32.668Z,98901.78
2018-10-18T19:23:00.610Z,98910.63
2018-10-18T19:25:28.557Z,98910.08
2018-10-18T19:27:56.302Z,98912.46
2018-10-18T19:30:23.990Z,98908.95
2018-10-18T19:32:51.850Z,98910.87
2018-10-18T19:36:10.767Z,98902.59
2018-10-18T19:38:39.658Z,98916.48
2018-10-18T19:41:07.585Z,98920.75
2018-10-18T19:43:35.836Z,98915.44
2018-10-18T19:46:04.636Z,98926.69
2018-10-18T19:48:32.597Z,98918.41
2018-10-18T19:51:00.598Z,98930.67
2018-10-18T19:53:32.294Z,98934.69
2018-10-18T19:56:00.033Z,98929.34
2018-10-18T19:58:28.054Z,98936.86
2018-10-18T20:00:55.984Z,98932.25
2018-10-18T20:03:23.723Z,98930.91
2018-10-18T20:05:51.603Z,98938.14
2018-10-18T20:08:19.539Z,98937.16
2018-10-18T20:10:47.807Z,98927.89
2018-10-18T20:13:16.054Z,98947.17
2018-10-18T20:15:44.202Z,98938.84
2018-10-18T20:18:11.594Z,98952.77
2018-10-18T20:20:39.196Z,98947.13
2018-10-18T20:23:06.934Z,98953.30
2018-10-18T20:25:34.839Z,98949.27
2018-10-18T20:28:03.202Z,98939.09
2018-10-18T20:30:31.967Z,98951.70
2018-10-18T20:33:00.011Z,98936.98
2018-10-18T20:35:27.352Z,98935.38
2018-10-18T20:37:55.043Z,98941.78
2018-10-18T20:40:23.046Z,98946.87
2018-10-18T20:42:50.896Z,98943.38
2018-10-18T20:45:28.677Z,98951.69
2018-10-18T20:47:56.642Z,98949.55
2018-10-18T20:50:24.585Z,98955.45
2018-10-18T20:53:58.874Z,98961.34
2018-10-18T20:56:26.617Z,98962.67
2018-10-18T20:58:54.780Z,98969.33
2018-10-18T21:01:22.599Z,98974.70
2018-10-18T21:03:50.525Z,98974.94
2018-10-18T21:06:18.284Z,98972.53
2018-10-18T21:08:45.989Z,98973.05
2018-10-18T21:11:13.793Z,98975.50
2018-10-18T21:13:41.559Z,98969.86
2018-10-18T21:16:09.607Z,98970.15
2018-10-18T21:18:36.995Z,98969.33
2018-10-18T21:21:05.076Z,98979.50
2018-10-18T21:23:33.093Z,98975.20
2018-10-18T21:26:00.818Z,98972.54
2018-10-18T21:28:28.770Z,98974.70
2018-10-18T21:33:24.859Z,98979.23
2018-10-18T21:35:52.670Z,98980.58
2018-10-18T21:38:20.589Z,98983.25
2018-10-18T21:40:48.622Z,98980.32
2018-10-18T21:43:16.646Z,98976.56
2018-10-18T21:45:44.854Z,98978.72
2018-10-18T21:48:12.958Z,98977.36
2018-10-18T21:50:40.407Z,98984.88
2018-10-18T21:53:08.263Z,98982.17
2018-10-18T21:55:36.046Z,98982.70
2018-10-18T21:58:04.057Z,98977.64
2018-10-18T22:00:36.501Z,98982.70
2018-10-18T22:03:04.535Z,98973.88
2018-10-18T22:05:32.692Z,98981.66
2018-10-18T22:08:00.575Z,98984.32
2018-10-18T22:10:28.730Z,98981.38
2018-10-18T22:12:56.687Z,98980.83
2018-10-18T22:15:24.563Z,98980.33
2018-10-18T22:17:52.486Z,98979.80
2018-10-18T22:20:19.724Z,98978.70
2018-10-18T22:22:47.602Z,98975.23
2018-10-18T22:25:15.506Z,98973.63
2018-10-18T22:27:42.702Z,98975.23
2018-10-18T22:30:10.468Z,98963.45
2018-10-18T22:32:38.343Z,98959.98
2018-10-18T22:35:06.165Z,98958.66
2018-10-18T22:37:34.007Z,98962.41
2018-10-18T22:40:01.950Z,98953.84
2018-10-18T22:42:29.742Z,98954.39
2018-10-18T22:44:57.656Z,98953.32
2018-10-18T22:47:25.765Z,98952.80
2018-10-18T22:49:53.806Z,98950.94
2018-10-18T22:53:27.387Z,98950.38
2018-10-18T22:55:55.449Z,98955.20
2018-10-18T22:58:23.659Z,98958.16
2018-10-18T23:00:51.409Z,98962.17
2018-10-18T23:03:20.026Z,98962.44
2018-10-18T23:05:48.625Z,98958.69
2018-10-18T23:08:16.625Z,98958.41
2018-10-18T23:10:44.916Z,98956.82
2018-10-18T23:13:12.885Z,98961.09
2018-10-18T23:15:40.303Z,98968.86
2018-10-18T23:18:09.002Z,98967.53
2018-10-18T23:20:36.873Z,98968.31
2018-10-18T23:23:05.008Z,98965.11
2018-10-18T23:25:32.722Z,98961.63
2018-10-18T23:28:00.638Z,98964.84
2018-10-18T23:30:28.462Z,98966.45
2018-10-18T23:32:56.244Z,98963.22
2018-10-18T23:35:23.946Z,98960.55
2018-10-18T23:37:51.681Z,98964.56
2018-10-18T23:40:19.686Z,98963.23
2018-10-18T23:42:47.662Z,98968.05
2018-10-18T23:45:15.670Z,98972.33
2018-10-18T23:47:43.592Z,98967.25
2018-10-18T23:50:11.398Z,98963.50
2018-10-18T23:52:39.222Z,98971.53
2018-10-18T23:55:07.007Z,98976.60
2018-10-18T23:57:34.890Z,98970.44
